createdAt,value
2023-01-16T00:01:08.413Z,8.60
2023-01-16T00:03:36.155Z,6.20
2023-01-16T00:06:04.088Z,7.30
2023-01-16T00:08:32.020Z,8.40
2023-01-16T00:11:00.188Z,6.00
2023-01-16T00:13:27.993Z,7.80
2023-01-16T00:15:55.783Z,7.30
2023-01-16T00:18:23.480Z,5.40
2023-01-16T00:20:51.213Z,5.40
2023-01-16T00:23:18.851Z,6.60
2023-01-16T00:25:46.650Z,9.60
2023-01-16T00:28:14.690Z,7.10
2023-01-16T00:30:43.076Z,6.00
2023-01-16T00:33:10.782Z,5.40
2023-01-16T00:35:39.415Z,5.40
2023-01-16T00:38:07.299Z,10.90
2023-01-16T00:40:35.004Z,7.30
2023-01-16T00:43:02.877Z,5.60
2023-01-16T00:45:30.698Z,7.90
2023-01-16T00:47:59.014Z,6.30
2023-01-16T00:50:26.941Z,7.50
2023-01-16T00:52:55.728Z,7.10
2023-01-16T00:55:23.839Z,8.60
2023-01-16T00:57:51.595Z,8.80
2023-01-16T01:00:21.788Z,8.70
2023-01-16T01:02:49.977Z,8.90
2023-01-16T01:05:18.831Z,7.10
2023-01-16T01:07:46.912Z,8.00
2023-01-16T01:10:14.633Z,7.70
2023-01-16T01:12:42.356Z,8.00
2023-01-16T01:15:10.124Z,7.20
2023-01-16T01:17:37.991Z,6.60
2023-01-16T01:20:07.080Z,6.90
2023-01-16T01:22:34.767Z,7.40
2023-01-16T01:25:02.527Z,7.50
2023-01-16T01:27:30.180Z,7.50
2023-01-16T01:29:57.848Z,6.60
2023-01-16T01:32:25.488Z,7.50
2023-01-16T01:34:53.162Z,5.90
2023-01-16T01:37:20.739Z,7.20
2023-01-16T01:39:48.451Z,7.70
2023-01-16T01:42:35.115Z,6.00
2023-01-16T01:45:23.297Z,7.60
2023-01-16T01:48:13.922Z,6.80
2023-01-16T01:51:06.459Z,6.80
2023-01-16T01:56:34.157Z,4.10
2023-01-16T01:59:11.382Z,5.30
2023-01-16T02:01:39.862Z,5.90
2023-01-16T02:04:15.872Z,6.30
2023-01-16T02:06:51.887Z,5.80
2023-01-16T02:09:21.933Z,6.60
2023-01-16T02:12:00.675Z,6.00
2023-01-16T02:14:32.532Z,5.50
2023-01-16T02:17:38.548Z,5.00
2023-01-16T02:20:24.181Z,4.70
2023-01-16T02:23:30.683Z,4.20
2023-01-16T02:27:07.889Z,5.30
2023-01-16T02:30:12.198Z,3.60
2023-01-16T02:33:18.444Z,6.30
2023-01-16T02:35:54.923Z,4.60
2023-01-16T02:38:52.612Z,4.60
2023-01-16T02:41:51.631Z,4.30
2023-01-16T02:44:43.322Z,4.70
2023-01-16T02:47:22.723Z,4.90
2023-01-16T02:49:54.240Z,4.60
2023-01-16T02:52:44.093Z,4.70
2023-01-16T02:55:13.822Z,3.70
2023-01-16T02:57:50.305Z,4.50
2023-01-16T03:00:19.820Z,6.10
2023-01-16T03:02:47.815Z,4.30
2023-01-16T03:05:16.039Z,4.80
2023-01-16T03:08:03.892Z,3.60
2023-01-16T03:11:05.254Z,5.10
2023-01-16T03:14:20.677Z,5.30
2023-01-16T03:16:54.577Z,7.50
2023-01-16T03:20:11.401Z,6.10
2023-01-16T03:22:52.290Z,7.30
2023-01-16T03:25:41.713Z,5.50
2023-01-16T03:28:29.697Z,8.20
2023-01-16T03:31:26.544Z,5.20
2023-01-16T03:34:42.071Z,4.80
2023-01-16T03:37:25.823Z,4.30
2023-01-16T03:40:04.029Z,4.30
2023-01-16T03:42:42.808Z,5.20
2023-01-16T03:45:21.757Z,4.80
2023-01-16T03:48:23.036Z,4.10
2023-01-16T03:50:59.916Z,5.90
2023-01-16T03:53:36.937Z,6.30
2023-01-16T03:56:22.916Z,5.70
2023-01-16T03:58:55.008Z,3.90
2023-01-16T04:02:21.281Z,4.30
2023-01-16T04:05:28.066Z,9.00
2023-01-16T04:08:15.393Z,5.80
2023-01-16T04:10:46.840Z,5.40
2023-01-16T04:13:23.300Z,5.00
2023-01-16T04:15:56.436Z,6.50
2023-01-16T04:18:34.828Z,8.30
2023-01-16T04:21:07.897Z,3.00
2023-01-16T04:23:36.757Z,6.90
2023-01-16T04:26:04.773Z,5.40
2023-01-16T04:28:32.444Z,5.90
2023-01-16T04:31:00.200Z,11.50
2023-01-16T04:33:27.932Z,13.80
2023-01-16T04:35:55.633Z,13.90
2023-01-16T04:38:25.276Z,11.50
2023-01-16T04:40:55.735Z,12.90
2023-01-16T04:43:23.525Z,12.40
2023-01-16T04:45:51.213Z,26.20
2023-01-16T04:48:18.964Z,18.80
2023-01-16T04:50:49.859Z,23.70
2023-01-16T04:53:17.480Z,19.00
2023-01-16T04:55:45.242Z,10.40
2023-01-16T04:58:12.922Z,9.80
2023-01-16T05:00:40.642Z,9.80
2023-01-16T05:03:08.390Z,12.70
2023-01-16T05:05:39.253Z,8.30
2023-01-16T05:08:19.474Z,8.80
2023-01-16T05:10:47.100Z,11.20
2023-01-16T05:13:14.842Z,7.50
2023-01-16T05:15:44.853Z,10.40
2023-01-16T05:18:13.889Z,11.60
2023-01-16T05:20:41.552Z,8.10
2023-01-16T05:23:11.174Z,8.30
2023-01-16T05:25:39.507Z,11.10
2023-01-16T05:28:07.500Z,12.20
2023-01-16T05:30:36.358Z,10.50
2023-01-16T05:33:05.199Z,11.20
2023-01-16T05:35:33.257Z,11.70
2023-01-16T05:38:00.935Z,10.60
2023-01-16T05:40:28.651Z,14.10
2023-01-16T05:42:56.446Z,15.10
2023-01-16T05:45:24.150Z,12.30
2023-01-16T05:47:52.083Z,11.70
2023-01-16T05:50:19.850Z,15.50
2023-01-16T05:52:50.545Z,18.10
2023-01-16T05:55:18.350Z,15.90
2023-01-16T05:57:46.118Z,17.70
2023-01-16T06:00:15.327Z,20.10
2023-01-16T06:02:43.539Z,20.60
2023-01-16T06:05:11.404Z,21.70
2023-01-16T06:07:39.394Z,20.80
2023-01-16T06:10:08.052Z,17.70
2023-01-16T06:12:35.811Z,21.00
2023-01-16T06:15:04.463Z,22.10
2023-01-16T06:17:32.163Z,23.90
2023-01-16T06:19:59.889Z,26.60
2023-01-16T06:22:27.549Z,32.00
2023-01-16T06:24:55.211Z,36.00
2023-01-16T06:27:23.178Z,33.00
2023-01-16T06:29:50.979Z,30.70
2023-01-16T06:32:19.924Z,26.40
2023-01-16T06:34:47.634Z,23.60
2023-01-16T06:37:15.348Z,29.00
2023-01-16T06:39:43.065Z,33.80
2023-01-16T06:42:10.926Z,29.10
2023-01-16T06:44:38.677Z,29.10
2023-01-16T06:47:07.228Z,23.40
2023-01-16T06:49:35.021Z,25.10
2023-01-16T06:52:05.387Z,19.30
2023-01-16T06:54:33.186Z,19.60
2023-01-16T06:57:00.928Z,18.60
2023-01-16T06:59:28.690Z,21.00
2023-01-16T07:01:56.445Z,18.70
2023-01-16T07:04:25.507Z,19.10
2023-01-16T07:06:53.314Z,21.70
2023-01-16T07:09:28.824Z,19.60
2023-01-16T07:11:56.644Z,25.70
2023-01-16T07:14:43.052Z,22.70
2023-01-16T07:17:31.013Z,21.10
2023-01-16T07:20:17.551Z,22.80
2023-01-16T07:22:46.152Z,18.00
2023-01-16T07:25:26.871Z,19.40
2023-01-16T07:27:54.714Z,20.70
2023-01-16T07:30:22.974Z,19.50
2023-01-16T07:32:51.055Z,19.70
2023-01-16T07:35:18.981Z,22.80
2023-01-16T07:37:47.001Z,19.90
2023-01-16T07:40:14.889Z,19.00
2023-01-16T07:42:42.688Z,22.80
2023-01-16T07:45:12.093Z,22.40
2023-01-16T07:47:39.971Z,22.60
2023-01-16T07:50:09.777Z,23.10
2023-01-16T07:52:37.623Z,27.90
2023-01-16T07:55:06.921Z,28.70
2023-01-16T07:57:37.845Z,25.90
2023-01-16T08:00:10.626Z,28.60
2023-01-16T08:02:42.433Z,29.90
2023-01-16T08:05:11.296Z,33.70
2023-01-16T08:07:39.199Z,27.40
2023-01-16T08:10:07.553Z,29.60
2023-01-16T08:12:38.687Z,22.50
2023-01-16T08:15:07.642Z,22.90
2023-01-16T08:17:40.881Z,22.70
2023-01-16T08:20:10.454Z,22.10
2023-01-16T08:22:50.657Z,19.30
2023-01-16T08:25:24.669Z,22.00
2023-01-16T08:27:52.752Z,23.50
2023-01-16T08:30:20.707Z,24.10
2023-01-16T08:32:48.538Z,21.70
2023-01-16T08:35:16.472Z,20.50
2023-01-16T08:37:50.476Z,22.90
2023-01-16T08:40:20.030Z,22.10
2023-01-16T08:43:06.705Z,20.00
2023-01-16T08:45:55.037Z,25.70
2023-01-16T08:48:45.050Z,21.60
2023-01-16T08:51:24.777Z,21.60
2023-01-16T08:53:55.481Z,24.60
2023-01-16T08:56:23.690Z,21.50
2023-01-16T08:58:51.495Z,21.70
2023-01-16T09:01:19.760Z,22.50
2023-01-16T09:03:47.523Z,24.60
2023-01-16T09:06:15.319Z,22.80
2023-01-16T09:08:43.107Z,28.40
2023-01-16T09:11:29.747Z,26.90
2023-01-16T09:14:00.718Z,27.40
2023-01-16T09:16:28.537Z,26.10
2023-01-16T09:18:56.454Z,31.40
2023-01-16T09:21:25.025Z,28.40
2023-01-16T09:23:53.017Z,28.40
2023-01-16T09:26:20.854Z,31.30
2023-01-16T09:28:48.728Z,24.10
2023-01-16T09:31:16.841Z,27.40
2023-01-16T09:33:45.184Z,26.10
2023-01-16T09:36:13.679Z,32.60
2023-01-16T09:38:41.674Z,25.50
2023-01-16T09:41:35.421Z,27.90
2023-01-16T09:44:08.138Z,29.00
2023-01-16T09:46:43.074Z,31.10
2023-01-16T09:49:28.713Z,29.10
2023-01-16T09:52:29.891Z,29.50
2023-01-16T09:55:23.787Z,38.10
2023-01-16T09:58:12.479Z,27.20
2023-01-16T10:00:40.256Z,29.20
2023-01-16T10:03:09.337Z,28.40
2023-01-16T10:05:57.709Z,26.10
2023-01-16T10:08:45.384Z,30.60
2023-01-16T10:11:33.272Z,32.90
2023-01-16T10:14:13.013Z,33.50
2023-01-16T10:16:50.477Z,30.40
2023-01-16T10:19:41.290Z,26.00
2023-01-16T10:22:54.309Z,32.80
2023-01-16T10:25:47.496Z,38.40
2023-01-16T10:28:44.249Z,34.20
2023-01-16T10:31:47.557Z,21.90
2023-01-16T10:34:23.464Z,19.60
2023-01-16T10:36:58.514Z,25.60
2023-01-16T10:39:38.210Z,17.20
2023-01-16T10:42:24.718Z,19.50
2023-01-16T10:45:38.534Z,16.80
2023-01-16T10:48:33.133Z,41.90
2023-01-16T10:51:02.226Z,36.70
2023-01-16T10:53:32.827Z,24.30
2023-01-16T10:56:01.577Z,27.00
2023-01-16T10:58:33.361Z,32.70
2023-01-16T11:01:20.728Z,28.90
2023-01-16T11:03:52.044Z,36.20
2023-01-16T11:06:27.411Z,33.00
2023-01-16T11:09:16.892Z,25.10
2023-01-16T11:12:05.220Z,25.00
2023-01-16T11:15:00.677Z,13.90
2023-01-16T11:17:54.967Z,14.90
2023-01-16T11:20:34.707Z,24.80
2023-01-16T11:23:22.247Z,20.50
2023-01-16T11:25:53.943Z,22.80
2023-01-16T11:28:28.817Z,21.70
2023-01-16T11:31:08.077Z,25.40
2023-01-16T11:33:44.994Z,21.20
2023-01-16T11:36:17.360Z,19.30
2023-01-16T11:38:48.172Z,24.90
2023-01-16T11:41:27.218Z,16.60
2023-01-16T11:44:40.711Z,19.50
2023-01-16T11:47:27.642Z,21.80
2023-01-16T11:49:56.333Z,16.10
2023-01-16T11:52:30.395Z,15.80
2023-01-16T11:55:05.314Z,13.30
2023-01-16T11:57:51.099Z,14.20
2023-01-16T12:00:57.961Z,17.40
2023-01-16T12:03:50.319Z,15.00
2023-01-16T12:09:36.474Z,11.00
2023-01-16T12:12:28.349Z,17.10
2023-01-16T12:15:03.787Z,10.90
2023-01-16T12:18:18.974Z,10.50
2023-01-16T12:21:04.283Z,13.00
2023-01-16T12:24:05.821Z,8.90
2023-01-16T12:26:46.409Z,10.00
2023-01-16T12:29:38.820Z,11.80
2023-01-16T12:35:27.233Z,12.80
2023-01-16T12:38:21.095Z,19.40
2023-01-16T12:41:56.706Z,21.50
2023-01-16T12:44:47.304Z,19.10
2023-01-16T12:47:31.189Z,16.50
2023-01-16T12:50:40.924Z,23.50
2023-01-16T12:53:15.839Z,20.20
2023-01-16T12:56:14.426Z,21.60
2023-01-16T12:58:50.124Z,17.60
2023-01-16T13:01:25.903Z,16.40
2023-01-16T13:04:02.935Z,20.10
2023-01-16T13:07:06.956Z,19.40
2023-01-16T13:10:20.760Z,18.60
2023-01-16T13:13:08.825Z,18.20
2023-01-16T13:15:42.091Z,17.00
2023-01-16T13:18:34.367Z,14.80
2023-01-16T13:21:08.159Z,19.50
2023-01-16T13:23:47.736Z,12.30
2023-01-16T13:26:18.944Z,16.30
2023-01-16T13:29:01.755Z,15.20
2023-01-16T13:31:57.601Z,17.90
2023-01-16T13:34:46.644Z,16.10
2023-01-16T13:37:53.927Z,16.50
2023-01-16T13:40:52.444Z,17.10
2023-01-16T13:44:10.282Z,16.40
2023-01-16T13:46:38.871Z,19.90
2023-01-16T13:49:09.859Z,22.80
2023-01-16T13:51:45.062Z,32.40
2023-01-16T13:54:22.294Z,31.50
2023-01-16T13:57:23.944Z,18.10
2023-01-16T13:59:58.411Z,17.60
2023-01-16T14:02:38.749Z,18.00
2023-01-16T14:05:50.767Z,37.30
2023-01-16T14:09:06.602Z,22.00
2023-01-16T14:11:58.224Z,18.90
2023-01-16T14:15:07.829Z,14.70
2023-01-16T14:17:54.186Z,15.10
2023-01-16T14:20:48.325Z,14.90
2023-01-16T14:23:41.615Z,16.40
2023-01-16T14:26:20.951Z,46.90
2023-01-16T14:28:55.871Z,19.10
2023-01-16T14:31:33.945Z,18.10
2023-01-16T14:34:02.343Z,23.80
2023-01-16T14:36:34.876Z,21.30
2023-01-16T14:39:03.010Z,18.70
2023-01-16T14:41:51.583Z,24.10
2023-01-16T14:44:40.349Z,20.20
2023-01-16T14:48:05.234Z,17.10
2023-01-16T14:51:14.000Z,25.00
2023-01-16T14:54:15.790Z,21.20
2023-01-16T14:56:48.252Z,25.20
2023-01-16T14:59:40.772Z,21.40
2023-01-16T15:02:38.523Z,25.30
2023-01-16T15:05:52.074Z,27.10
2023-01-16T15:08:35.975Z,29.00
2023-01-16T15:11:34.126Z,28.40
2023-01-16T15:14:26.297Z,30.60
2023-01-16T15:17:16.898Z,38.10
2023-01-16T15:20:31.130Z,30.20
2023-01-16T15:23:01.339Z,33.10
2023-01-16T15:26:07.378Z,32.30
2023-01-16T15:28:44.286Z,33.70
2023-01-16T15:31:19.114Z,53.30
2023-01-16T15:34:11.429Z,43.30
2023-01-16T15:36:51.014Z,57.50
2023-01-16T15:39:40.862Z,42.90
2023-01-16T15:42:38.910Z,44.80
2023-01-16T15:45:44.586Z,47.50
2023-01-16T15:48:24.356Z,46.30
2023-01-16T15:51:02.065Z,61.10
2023-01-16T15:53:43.870Z,48.20
2023-01-16T15:56:56.020Z,47.90
2023-01-16T16:01:54.173Z,48.60
2023-01-16T16:04:23.796Z,49.70
2023-01-16T16:06:53.028Z,53.10
2023-01-16T16:09:26.406Z,58.10
2023-01-16T16:11:56.393Z,61.50
2023-01-16T16:14:53.781Z,61.50
2023-01-16T16:17:48.471Z,51.80
2023-01-16T16:20:42.295Z,48.90
2023-01-16T16:23:13.293Z,50.00
2023-01-16T16:25:59.473Z,51.60
2023-01-16T16:28:33.477Z,64.20
2023-01-16T16:31:12.455Z,61.00
2023-01-16T16:33:56.288Z,54.10
2023-01-16T16:36:25.004Z,54.70
2023-01-16T16:38:56.914Z,54.00
2023-01-16T16:41:24.644Z,54.90
2023-01-16T16:43:59.428Z,54.40
2023-01-16T16:46:31.449Z,50.70
2023-01-16T16:49:23.130Z,79.70
2023-01-16T16:51:51.472Z,71.60
2023-01-16T16:54:28.201Z,59.80
2023-01-16T16:56:59.005Z,53.40
2023-01-16T16:59:33.258Z,58.90
2023-01-16T17:02:04.164Z,56.10
2023-01-16T17:04:31.910Z,64.70
2023-01-16T17:06:59.851Z,71.50
2023-01-16T17:09:31.791Z,63.30
2023-01-16T17:12:14.495Z,66.00
2023-01-16T17:14:44.988Z,45.70
2023-01-16T17:17:19.179Z,47.40
2023-01-16T17:19:47.425Z,43.10
2023-01-16T17:22:15.351Z,39.60
2023-01-16T17:24:43.104Z,54.20
2023-01-16T17:27:11.577Z,55.40
2023-01-16T17:29:45.651Z,50.00
2023-01-16T17:32:30.828Z,48.80
2023-01-16T17:34:59.446Z,43.80
2023-01-16T17:37:27.292Z,45.60
2023-01-16T17:39:55.071Z,49.90
2023-01-16T17:42:41.270Z,49.80
2023-01-16T17:45:52.864Z,54.10
2023-01-16T17:48:25.856Z,64.30
2023-01-16T17:50:55.796Z,69.20
2023-01-16T17:53:26.113Z,71.30
2023-01-16T17:55:57.652Z,56.40
2023-01-16T17:58:47.937Z,51.80
2023-01-16T18:01:18.983Z,39.20
2023-01-16T18:04:10.785Z,45.10
2023-01-16T18:06:41.166Z,50.60
2023-01-16T18:09:12.466Z,43.20
2023-01-16T18:12:02.011Z,52.90
2023-01-16T18:14:48.149Z,39.00
2023-01-16T18:17:26.786Z,44.40
2023-01-16T18:20:02.396Z,40.30
2023-01-16T18:22:36.521Z,39.60
2023-01-16T18:25:08.031Z,45.70
2023-01-16T18:27:36.141Z,47.90
2023-01-16T18:30:05.017Z,45.80
2023-01-16T18:32:33.707Z,49.20
2023-01-16T18:35:07.722Z,43.90
2023-01-16T18:38:02.713Z,48.20
2023-01-16T18:40:49.433Z,50.60
2023-01-16T18:43:36.645Z,45.60
2023-01-16T18:46:23.258Z,49.40
2023-01-16T18:49:20.478Z,42.80
2023-01-16T18:52:06.964Z,51.40
2023-01-16T18:54:53.104Z,38.10
2023-01-16T18:57:43.752Z,49.90
2023-01-16T19:00:41.494Z,48.30
2023-01-16T19:03:25.139Z,49.30
2023-01-16T19:05:55.303Z,45.90
2023-01-16T19:08:24.730Z,42.60
2023-01-16T19:10:54.828Z,47.30
2023-01-16T19:13:37.339Z,41.20
2023-01-16T19:16:24.900Z,38.30
2023-01-16T19:19:04.547Z,36.80
2023-01-16T19:21:33.801Z,36.90
2023-01-16T19:24:03.227Z,65.00
2023-01-16T19:26:30.872Z,122.90
2023-01-16T19:28:58.459Z,124.30
2023-01-16T19:31:27.772Z,105.10
2023-01-16T19:33:56.458Z,77.50
2023-01-16T19:36:24.197Z,61.00
2023-01-16T19:38:53.215Z,76.50
2023-01-16T19:41:41.171Z,50.90
2023-01-16T19:44:29.052Z,51.90
2023-01-16T19:46:57.488Z,50.20
2023-01-16T19:49:25.742Z,50.80
2023-01-16T19:51:56.357Z,45.90
2023-01-16T19:54:28.140Z,42.10
2023-01-16T19:56:56.889Z,39.00
2023-01-16T19:59:24.997Z,41.10
2023-01-16T20:01:59.680Z,37.00
2023-01-16T20:04:36.121Z,54.20
2023-01-16T20:07:10.252Z,47.30
2023-01-16T20:09:45.312Z,38.20
2023-01-16T20:12:24.968Z,38.00
2023-01-16T20:14:55.453Z,44.40
2023-01-16T20:17:24.581Z,53.20
2023-01-16T20:19:56.136Z,46.40
2023-01-16T20:22:35.145Z,47.90
2023-01-16T20:25:11.043Z,50.40
2023-01-16T20:27:40.750Z,42.20
2023-01-16T20:30:34.757Z,40.40
2023-01-16T20:33:02.557Z,44.10
2023-01-16T20:35:30.698Z,39.10
2023-01-16T20:37:58.613Z,36.90
2023-01-16T20:40:26.319Z,36.40
2023-01-16T20:43:12.565Z,38.30
2023-01-16T20:45:51.212Z,30.20
2023-01-16T20:48:20.174Z,33.50
2023-01-16T20:50:49.653Z,28.30
2023-01-16T20:53:18.889Z,35.50
2023-01-16T20:55:48.711Z,42.50
2023-01-16T20:58:16.483Z,47.20
2023-01-16T21:00:44.348Z,35.40
2023-01-16T21:03:12.510Z,44.20
2023-01-16T21:05:40.731Z,45.90
2023-01-16T21:08:08.620Z,36.20
2023-01-16T21:10:36.320Z,36.30
2023-01-16T21:13:22.998Z,26.70
2023-01-16T21:16:14.401Z,32.70
2023-01-16T21:19:02.128Z,33.40
2023-01-16T21:21:49.910Z,58.60
2023-01-16T21:24:19.439Z,36.20
2023-01-16T21:26:48.592Z,38.50
2023-01-16T21:29:16.296Z,30.80
2023-01-16T21:31:44.084Z,27.90
2023-01-16T21:34:11.813Z,33.70
2023-01-16T21:36:42.240Z,34.10
2023-01-16T21:39:11.521Z,29.50
2023-01-16T21:41:57.807Z,33.80
2023-01-16T21:44:43.953Z,28.10
2023-01-16T21:47:12.701Z,36.30
2023-01-16T21:49:40.508Z,36.20
2023-01-16T21:52:09.665Z,31.60
2023-01-16T21:54:37.272Z,34.30
2023-01-16T21:57:04.926Z,38.90
2023-01-16T21:59:32.655Z,44.20
2023-01-16T22:02:00.369Z,108.80
2023-01-16T22:04:28.225Z,65.00
2023-01-16T22:06:55.887Z,40.90
2023-01-16T22:09:23.595Z,46.00
2023-01-16T22:12:09.643Z,70.80
2023-01-16T22:14:55.730Z,39.70
2023-01-16T22:17:42.363Z,46.20
2023-01-16T22:20:22.992Z,44.00
2023-01-16T22:22:55.202Z,45.20
2023-01-16T22:28:06.951Z,43.20
2023-01-16T22:30:34.698Z,39.30
2023-01-16T22:33:02.358Z,33.00
2023-01-16T22:35:30.152Z,36.60
2023-01-16T22:37:59.919Z,35.20
2023-01-16T22:40:27.661Z,30.50
2023-01-16T22:43:15.302Z,34.50
2023-01-16T22:46:01.285Z,40.30
2023-01-16T22:48:29.015Z,34.90
2023-01-16T22:51:04.290Z,40.40
2023-01-16T22:53:31.974Z,34.90
2023-01-16T22:56:01.721Z,31.80
2023-01-16T22:58:30.008Z,36.10
2023-01-16T23:00:59.074Z,32.90
2023-01-16T23:03:26.824Z,29.00
2023-01-16T23:05:54.488Z,33.60
2023-01-16T23:08:22.178Z,34.60
2023-01-16T23:11:35.110Z,33.30
2023-01-16T23:16:39.743Z,40.50
2023-01-16T23:19:12.470Z,32.40
2023-01-16T23:21:59.898Z,37.00
2023-01-16T23:24:32.161Z,34.60
2023-01-16T23:27:02.341Z,43.30
2023-01-16T23:29:31.563Z,34.80
2023-01-16T23:31:59.690Z,35.10
2023-01-16T23:34:29.645Z,29.40
2023-01-16T23:36:57.408Z,30.00
2023-01-16T23:39:25.498Z,28.20
2023-01-16T23:42:11.991Z,30.50
2023-01-16T23:44:39.706Z,30.90
2023-01-16T23:47:21.574Z,31.20
2023-01-16T23:49:52.907Z,28.90
2023-01-16T23:52:28.959Z,34.40
2023-01-16T23:54:56.716Z,27.10
2023-01-16T23:57:28.806Z,33.90
2023-01-16T23:59:56.481Z,28.10
